createdAt,value
2023-03-26T00:00:48.480Z,99477.09
2023-03-26T00:03:18.350Z,99471.03
2023-03-26T00:05:48.135Z,99483.25
2023-03-26T00:08:16.277Z,99482.41
2023-03-26T00:10:43.420Z,99478.28
2023-03-26T00:13:10.197Z,99478.34
2023-03-26T00:15:37.820Z,99481.09
2023-03-26T00:18:04.278Z,99482.06
2023-03-26T00:20:32.714Z,99484.00
2023-03-26T00:23:01.747Z,99469.25
2023-03-26T00:25:28.372Z,99464.78
2023-03-26T00:27:55.111Z,99473.72
2023-03-26T00:30:21.555Z,99472.91
2023-03-26T00:32:53.602Z,99469.44
2023-03-26T00:35:20.752Z,99476.59
2023-03-26T00:37:47.096Z,99469.53
2023-03-26T00:40:13.629Z,99474.13
2023-03-26T00:42:39.966Z,99469.84
2023-03-26T00:45:07.337Z,99482.22
2023-03-26T00:47:34.220Z,99470.88
2023-03-26T00:50:01.114Z,99462.34
2023-03-26T00:52:28.471Z,99467.53
2023-03-26T00:54:55.779Z,99479.00
2023-03-26T00:57:32.988Z,99463.25
2023-03-26T01:00:14.870Z,99469.28
2023-03-26T01:02:41.369Z,99431.28
2023-03-26T01:05:46.683Z,99467.72
2023-03-26T01:08:19.368Z,99462.34
2023-03-26T01:10:50.777Z,99454.66
2023-03-26T01:13:23.429Z,99461.66
2023-03-26T01:15:51.309Z,99442.38
2023-03-26T01:18:20.675Z,99441.34
2023-03-26T01:20:49.729Z,99437.19
2023-03-26T01:23:23.553Z,99447.47
2023-03-26T01:26:01.005Z,99443.09
2023-03-26T01:28:32.080Z,99433.50
2023-03-26T01:31:21.699Z,99418.72
2023-03-26T01:34:04.296Z,99418.56
2023-03-26T01:36:55.749Z,99416.00
2023-03-26T01:39:27.225Z,99422.19
2023-03-26T01:41:59.351Z,99422.03
2023-03-26T01:44:38.522Z,99413.38
2023-03-26T01:47:05.976Z,99401.25
2023-03-26T01:49:32.378Z,99406.41
2023-03-26T01:51:58.787Z,99399.44
2023-03-26T01:54:28.440Z,99395.88
2023-03-26T01:57:20.270Z,99400.25
2023-03-26T02:00:12.423Z,99393.31
2023-03-26T02:03:04.778Z,99397.59
2023-03-26T02:05:37.741Z,99390.56
2023-03-26T02:08:20.895Z,99383.69
2023-03-26T02:10:52.688Z,99378.53
2023-03-26T02:13:19.140Z,99369.19
2023-03-26T02:16:00.236Z,99370.19
2023-03-26T02:18:36.118Z,99366.53
2023-03-26T02:21:05.428Z,99356.94
2023-03-26T02:23:35.645Z,99351.56
2023-03-26T02:26:07.342Z,99358.41
2023-03-26T02:28:34.560Z,99351.00
2023-03-26T02:31:01.822Z,99354.25
2023-03-26T02:33:29.348Z,99337.69
2023-03-26T02:36:01.829Z,99340.97
2023-03-26T02:38:33.589Z,99348.03
2023-03-26T02:41:00.143Z,99336.56
2023-03-26T02:43:26.471Z,99340.97
2023-03-26T02:45:53.073Z,99334.88
2023-03-26T02:48:20.329Z,99339.19
2023-03-26T02:50:49.988Z,99322.69
2023-03-26T02:53:16.976Z,99334.72
2023-03-26T02:55:43.330Z,99332.88
2023-03-26T02:58:09.630Z,99324.13
2023-03-26T03:00:35.963Z,99324.09
2023-03-26T03:03:04.431Z,99307.63
2023-03-26T03:05:34.210Z,99330.19
2023-03-26T03:08:00.695Z,99311.81
2023-03-26T03:10:27.990Z,99313.69
2023-03-26T03:12:54.798Z,99293.63
2023-03-26T03:15:21.279Z,99309.19
2023-03-26T03:17:47.641Z,99295.22
2023-03-26T03:20:14.185Z,99291.66
2023-03-26T03:22:41.173Z,99290.72
2023-03-26T03:25:09.085Z,99287.22
2023-03-26T03:27:39.236Z,99280.41
2023-03-26T03:30:06.918Z,99286.41
2023-03-26T03:32:33.282Z,99281.97
2023-03-26T03:34:59.653Z,99281.13
2023-03-26T03:37:26.913Z,99281.00
2023-03-26T03:39:53.530Z,99262.69
2023-03-26T03:42:19.846Z,99267.03
2023-03-26T03:44:46.147Z,99258.22
2023-03-26T03:47:13.764Z,99258.34
2023-03-26T03:49:40.742Z,99259.41
2023-03-26T03:52:07.300Z,99259.53
2023-03-26T03:54:33.939Z,99245.38
2023-03-26T03:57:01.866Z,99250.50
2023-03-26T03:59:28.153Z,99251.22
2023-03-26T04:01:54.532Z,99252.06
2023-03-26T04:04:21.898Z,99244.25
2023-03-26T04:06:48.208Z,99242.50
2023-03-26T04:09:14.498Z,99237.13
2023-03-26T04:11:40.767Z,99217.13
2023-03-26T04:14:07.084Z,99230.91
2023-03-26T04:16:33.456Z,99234.41
2023-03-26T04:19:02.194Z,99214.34
2023-03-26T04:21:30.476Z,99220.34
2023-03-26T04:23:56.790Z,99213.38
2023-03-26T04:26:23.369Z,99192.56
2023-03-26T04:28:54.241Z,99201.22
2023-03-26T04:31:24.268Z,99196.91
2023-03-26T04:33:56.272Z,99189.91
2023-03-26T04:36:27.124Z,99185.66
2023-03-26T04:38:54.474Z,99184.63
2023-03-26T04:41:22.429Z,99179.38
2023-03-26T04:43:50.581Z,99175.00
2023-03-26T04:46:23.364Z,99165.41
2023-03-26T04:48:51.232Z,99158.41
2023-03-26T04:51:21.914Z,99133.78
2023-03-26T04:53:53.894Z,99127.69
2023-03-26T04:56:39.009Z,99133.00
2023-03-26T04:59:06.129Z,99134.47
2023-03-26T05:01:33.026Z,99116.94
2023-03-26T05:03:59.570Z,99123.31
2023-03-26T05:06:28.657Z,99124.25
2023-03-26T05:08:54.980Z,99112.06
2023-03-26T05:11:21.344Z,99108.59
2023-03-26T05:13:47.717Z,99111.31
2023-03-26T05:16:14.069Z,99106.88
2023-03-26T05:18:40.435Z,99080.56
2023-03-26T05:21:07.069Z,99085.09
2023-03-26T05:23:33.364Z,99089.56
2023-03-26T05:25:59.714Z,99091.31
2023-03-26T05:28:26.968Z,99069.56
2023-03-26T05:30:54.279Z,99081.53
2023-03-26T05:33:21.941Z,99085.00
2023-03-26T05:35:59.014Z,99087.47
2023-03-26T05:38:25.476Z,99078.59
2023-03-26T05:40:52.301Z,99071.59
2023-03-26T05:43:18.751Z,99066.19
2023-03-26T05:45:47.588Z,99063.50
2023-03-26T05:48:13.906Z,99060.91
2023-03-26T05:50:40.285Z,99057.34
2023-03-26T05:53:06.603Z,99039.88
2023-03-26T05:55:34.763Z,99046.78
2023-03-26T05:58:01.086Z,99037.06
2023-03-26T06:00:27.699Z,99037.06
2023-03-26T06:02:57.368Z,99029.22
2023-03-26T06:05:24.378Z,99028.38
2023-03-26T06:07:50.706Z,99027.38
2023-03-26T06:10:18.095Z,99019.44
2023-03-26T06:12:45.707Z,99009.75
2023-03-26T06:15:12.055Z,99007.03
2023-03-26T06:17:38.368Z,99003.59
2023-03-26T06:20:09.294Z,99000.84
2023-03-26T06:22:36.065Z,98995.50
2023-03-26T06:25:02.346Z,98980.66
2023-03-26T06:27:28.664Z,98993.56
2023-03-26T06:29:55.327Z,98983.13
2023-03-26T06:32:21.805Z,98985.72
2023-03-26T06:34:48.157Z,98985.41
2023-03-26T06:37:14.554Z,98989.66
2023-03-26T06:39:40.915Z,98980.69
2023-03-26T06:42:07.717Z,98982.41
2023-03-26T06:44:34.217Z,98982.28
2023-03-26T06:47:00.769Z,98989.38
2023-03-26T06:49:27.249Z,98984.31
2023-03-26T06:51:53.580Z,98977.56
2023-03-26T06:54:19.928Z,98982.03
2023-03-26T06:56:46.326Z,98972.50
2023-03-26T06:59:12.781Z,98964.88
2023-03-26T07:01:39.119Z,98971.94
2023-03-26T07:04:05.720Z,98970.28
2023-03-26T07:06:32.422Z,98958.97
2023-03-26T07:08:58.737Z,98958.91
2023-03-26T07:11:26.886Z,98952.91
2023-03-26T07:13:53.298Z,98959.72
2023-03-26T07:16:19.784Z,98958.03
2023-03-26T07:18:46.254Z,98948.63
2023-03-26T07:21:12.998Z,98933.63
2023-03-26T07:23:39.639Z,98938.81
2023-03-26T07:26:25.991Z,98937.81
2023-03-26T07:29:06.406Z,98928.03
2023-03-26T07:32:02.622Z,98911.47
2023-03-26T07:34:51.998Z,98926.19
2023-03-26T07:37:37.231Z,98912.97
2023-03-26T07:40:17.574Z,98908.53
2023-03-26T07:43:00.402Z,98900.66
2023-03-26T07:45:39.715Z,98897.03
2023-03-26T07:48:27.183Z,98889.25
2023-03-26T07:50:54.940Z,98877.91
2023-03-26T07:53:22.441Z,98869.94
2023-03-26T07:56:04.263Z,98877.44
2023-03-26T07:58:39.842Z,98870.25
2023-03-26T08:01:39.720Z,98855.97
2023-03-26T08:04:43.872Z,98863.72
2023-03-26T08:07:35.070Z,98853.88
2023-03-26T08:10:12.544Z,98858.16
2023-03-26T08:12:54.950Z,98837.53
2023-03-26T08:15:29.344Z,98862.25
2023-03-26T08:18:01.842Z,98860.41
2023-03-26T08:20:50.204Z,98853.22
2023-03-26T08:23:27.542Z,98846.09
2023-03-26T08:26:12.716Z,98861.91
2023-03-26T08:28:52.591Z,98865.34
2023-03-26T08:31:28.646Z,98857.41
2023-03-26T08:33:55.032Z,98857.31
2023-03-26T08:36:21.408Z,98867.09
2023-03-26T08:38:48.363Z,98873.19
2023-03-26T08:41:39.914Z,98871.47
2023-03-26T08:44:40.719Z,98869.03
2023-03-26T08:47:25.578Z,98870.94
2023-03-26T08:50:29.672Z,98866.75
2023-03-26T08:53:25.556Z,98847.59
2023-03-26T08:56:28.879Z,98860.81
2023-03-26T08:59:13.973Z,98852.03
2023-03-26T09:01:49.417Z,98854.66
2023-03-26T09:04:58.275Z,98843.22
2023-03-26T09:08:00.161Z,98821.25
2023-03-26T09:10:44.441Z,98792.16
2023-03-26T09:13:16.636Z,98810.28
2023-03-26T09:16:06.345Z,98811.13
2023-03-26T09:18:58.963Z,98819.25
2023-03-26T09:22:00.754Z,98820.66
2023-03-26T09:25:08.543Z,98809.88
2023-03-26T09:27:56.550Z,98801.03
2023-03-26T09:30:53.936Z,98806.47
2023-03-26T09:33:48.040Z,98801.03
2023-03-26T09:36:32.470Z,98789.81
2023-03-26T09:39:09.723Z,98799.41
2023-03-26T09:41:59.669Z,98795.09
2023-03-26T09:44:53.397Z,98789.28
2023-03-26T09:47:39.355Z,98790.31
2023-03-26T09:50:24.505Z,98779.50
2023-03-26T09:52:59.945Z,98791.72
2023-03-26T09:55:39.788Z,98803.09
2023-03-26T09:58:27.154Z,98784.38
2023-03-26T10:01:35.479Z,98783.38
2023-03-26T10:04:38.505Z,98782.06
2023-03-26T10:07:35.922Z,98795.88
2023-03-26T10:10:14.962Z,98790.28
2023-03-26T10:12:50.328Z,98781.91
2023-03-26T10:15:42.827Z,98787.47
2023-03-26T10:18:27.473Z,98777.97
2023-03-26T10:21:06.985Z,98772.78
2023-03-26T10:23:57.025Z,98765.88
2023-03-26T10:27:08.333Z,98762.28
2023-03-26T10:30:07.782Z,98756.91
2023-03-26T10:32:51.181Z,98742.66
2023-03-26T10:35:37.698Z,98730.94
2023-03-26T10:38:33.545Z,98723.56
2023-03-26T10:41:28.946Z,98722.59
2023-03-26T10:44:25.757Z,98709.66
2023-03-26T10:47:10.806Z,98715.13
2023-03-26T10:50:10.444Z,98707.50
2023-03-26T10:52:49.062Z,98698.31
2023-03-26T10:55:46.568Z,98691.88
2023-03-26T10:58:26.348Z,98687.63
2023-03-26T11:01:24.018Z,98666.84
2023-03-26T11:03:55.608Z,98696.38
2023-03-26T11:06:45.286Z,98681.59
2023-03-26T11:09:48.670Z,98675.22
2023-03-26T11:12:47.500Z,98678.00
2023-03-26T11:15:47.762Z,98667.53
2023-03-26T11:18:44.708Z,98664.94
2023-03-26T11:21:19.105Z,98659.84
2023-03-26T11:24:05.022Z,98658.34
2023-03-26T11:26:32.550Z,98653.72
2023-03-26T11:29:32.904Z,98646.25
2023-03-26T11:32:12.489Z,98627.28
2023-03-26T11:34:59.287Z,98633.22
2023-03-26T11:37:41.447Z,98641.47
2023-03-26T11:40:21.316Z,98635.25
2023-03-26T11:42:53.025Z,98631.28
2023-03-26T11:45:24.086Z,98634.47
2023-03-26T11:47:52.728Z,98636.88
2023-03-26T11:50:27.593Z,98637.41
2023-03-26T11:53:12.348Z,98638.81
2023-03-26T11:55:43.791Z,98641.44
2023-03-26T11:58:22.630Z,98647.22
2023-03-26T12:00:50.389Z,98640.88
2023-03-26T12:03:16.719Z,98628.19
2023-03-26T12:05:58.679Z,98636.50
2023-03-26T12:08:37.864Z,98652.59
2023-03-26T12:11:10.194Z,98647.88
2023-03-26T12:13:44.033Z,98649.63
2023-03-26T12:16:21.354Z,98644.47
2023-03-26T12:19:00.013Z,98650.94
2023-03-26T12:21:27.056Z,98649.88
2023-03-26T12:23:56.296Z,98647.09
2023-03-26T12:26:48.833Z,98635.69
2023-03-26T12:29:18.766Z,98631.63
2023-03-26T12:31:53.220Z,98632.31
2023-03-26T12:34:22.424Z,98625.44
2023-03-26T12:36:52.183Z,98633.03
2023-03-26T12:40:09.078Z,98633.16
2023-03-26T12:44:46.407Z,98602.47
2023-03-26T12:45:23.669Z,98631.41
2023-03-26T12:47:58.313Z,98613.88
2023-03-26T12:50:39.092Z,98622.88
2023-03-26T12:53:24.727Z,98635.72
2023-03-26T12:56:04.177Z,98616.19
2023-03-26T12:59:12.182Z,98626.66
2023-03-26T13:01:45.131Z,98615.38
2023-03-26T13:04:26.503Z,98618.63
2023-03-26T13:07:13.306Z,98610.22
2023-03-26T13:10:08.458Z,98617.28
2023-03-26T13:12:51.341Z,98611.03
2023-03-26T13:15:30.427Z,98622.47
2023-03-26T13:18:19.947Z,98612.81
2023-03-26T13:20:49.300Z,98615.03
2023-03-26T13:23:37.154Z,98613.34
2023-03-26T13:26:12.958Z,98621.88
2023-03-26T13:28:49.206Z,98625.88
2023-03-26T13:31:32.650Z,98622.25
2023-03-26T13:34:14.254Z,98627.72
2023-03-26T13:37:21.141Z,98622.78
2023-03-26T13:40:19.585Z,98628.31
2023-03-26T13:43:01.058Z,98610.94
2023-03-26T13:45:54.698Z,98598.81
2023-03-26T13:48:39.044Z,98596.75
2023-03-26T13:51:12.698Z,98608.06
2023-03-26T13:53:51.264Z,98613.53
2023-03-26T13:56:23.617Z,98610.22
2023-03-26T13:58:59.370Z,98604.78
2023-03-26T14:01:34.745Z,98606.53
2023-03-26T14:04:25.681Z,98618.63
2023-03-26T14:07:15.699Z,98596.50
2023-03-26T14:10:05.722Z,98601.06
2023-03-26T14:12:37.896Z,98602.72
2023-03-26T14:15:13.746Z,98601.44
2023-03-26T14:17:42.901Z,98600.19
2023-03-26T14:20:19.867Z,98596.97
2023-03-26T14:23:01.916Z,98598.19
2023-03-26T14:25:44.322Z,98589.50
2023-03-26T14:28:29.429Z,98592.69
2023-03-26T14:31:19.499Z,98594.56
2023-03-26T14:34:16.004Z,98583.91
2023-03-26T14:37:12.897Z,98583.69
2023-03-26T14:40:14.692Z,98578.44
2023-03-26T14:43:00.828Z,98568.03
2023-03-26T14:45:45.910Z,98562.69
2023-03-26T14:48:38.020Z,98550.44
2023-03-26T14:51:14.886Z,98536.47
2023-03-26T14:53:48.507Z,98536.28
2023-03-26T14:56:37.089Z,98525.19
2023-03-26T14:59:37.066Z,98519.03
2023-03-26T15:02:52.801Z,98524.50
2023-03-26T15:06:03.926Z,98524.59
2023-03-26T15:09:12.366Z,98520.44
2023-03-26T15:12:12.267Z,98526.84
2023-03-26T15:15:07.034Z,98520.94
2023-03-26T15:18:07.985Z,98527.78
2023-03-26T15:21:12.301Z,98519.91
2023-03-26T15:24:00.444Z,98515.09
2023-03-26T15:27:05.518Z,98535.00
2023-03-26T15:30:09.403Z,98533.91
2023-03-26T15:33:11.904Z,98530.66
2023-03-26T15:35:59.869Z,98535.47
2023-03-26T15:38:57.242Z,98547.19
2023-03-26T15:41:31.614Z,98554.72
2023-03-26T15:46:36.361Z,98576.69
2023-03-26T15:49:19.611Z,98588.59
2023-03-26T15:51:56.609Z,98562.38
2023-03-26T15:54:31.568Z,98586.72
2023-03-26T15:57:20.623Z,98592.50
2023-03-26T16:00:22.296Z,98594.97
2023-03-26T16:03:10.769Z,98596.69
2023-03-26T16:05:56.237Z,98618.50
2023-03-26T16:08:41.416Z,98674.19
2023-03-26T16:11:12.427Z,98723.38
2023-03-26T16:13:46.589Z,98719.88
2023-03-26T16:16:16.040Z,98735.13
2023-03-26T16:18:43.866Z,98739.78
2023-03-26T16:21:31.431Z,98748.16
2023-03-26T16:24:01.628Z,98759.44
2023-03-26T16:26:55.488Z,98732.66
2023-03-26T16:29:25.587Z,98743.72
2023-03-26T16:32:06.891Z,98724.50
2023-03-26T16:34:49.342Z,98732.56
2023-03-26T16:37:40.723Z,98737.84
2023-03-26T16:40:16.411Z,98737.91
2023-03-26T16:43:02.557Z,98733.13
2023-03-26T16:45:39.792Z,98732.06
2023-03-26T16:48:44.298Z,98725.13
2023-03-26T16:51:24.288Z,98729.63
2023-03-26T16:53:51.231Z,98706.78
2023-03-26T16:56:21.332Z,98701.50
2023-03-26T16:58:53.871Z,98698.84
2023-03-26T17:01:56.691Z,98698.66
2023-03-26T17:04:30.269Z,98700.03
2023-03-26T17:07:13.985Z,98700.69
2023-03-26T17:10:08.829Z,98691.09
2023-03-26T17:12:44.991Z,98696.97
2023-03-26T17:15:36.674Z,98693.41
2023-03-26T17:18:25.570Z,98691.69
2023-03-26T17:20:59.563Z,98701.47
2023-03-26T17:23:44.074Z,98706.09
2023-03-26T17:26:18.902Z,98697.25
2023-03-26T17:29:23.208Z,98707.69
2023-03-26T17:32:00.269Z,98699.13
2023-03-26T17:34:38.951Z,98710.59
2023-03-26T17:37:11.469Z,98712.41
2023-03-26T17:39:40.672Z,98710.75
2023-03-26T17:42:27.339Z,98705.47
2023-03-26T17:44:58.541Z,98702.66
2023-03-26T17:47:43.660Z,98702.56
2023-03-26T17:50:22.561Z,98700.75
2023-03-26T17:53:06.049Z,98694.19
2023-03-26T17:55:36.798Z,98701.34
2023-03-26T17:58:20.586Z,98709.22
2023-03-26T18:00:50.994Z,98703.03
2023-03-26T18:03:49.475Z,98719.00
2023-03-26T18:06:40.610Z,98706.91
2023-03-26T18:09:28.714Z,98720.28
2023-03-26T18:12:13.156Z,98723.03
2023-03-26T18:15:01.243Z,98732.56
2023-03-26T18:17:38.458Z,98728.06
2023-03-26T18:20:06.474Z,98727.06
2023-03-26T18:22:33.436Z,98722.81
2023-03-26T18:25:01.476Z,98734.06
2023-03-26T18:27:40.465Z,98741.91
2023-03-26T18:30:18.687Z,98737.72
2023-03-26T18:33:12.405Z,98738.63
2023-03-26T18:35:50.536Z,98748.31
2023-03-26T18:38:36.081Z,98746.41
2023-03-26T18:41:08.068Z,98748.41
2023-03-26T18:43:44.104Z,98752.84
2023-03-26T18:46:13.789Z,98742.38
2023-03-26T18:48:40.355Z,98753.06
2023-03-26T18:51:07.741Z,98739.31
2023-03-26T18:53:51.060Z,98746.34
2023-03-26T18:56:29.738Z,98754.09
2023-03-26T18:58:58.921Z,98753.09
2023-03-26T19:01:30.693Z,98755.97
2023-03-26T19:04:04.795Z,98739.63
2023-03-26T19:06:39.828Z,98751.78
2023-03-26T19:09:23.872Z,98753.44
2023-03-26T19:11:59.131Z,98752.78
2023-03-26T19:14:27.491Z,98749.34
2023-03-26T19:17:00.441Z,98749.97
2023-03-26T19:19:32.067Z,98743.84
2023-03-26T19:21:59.652Z,98760.44
2023-03-26T19:24:26.952Z,98754.16
2023-03-26T19:26:53.398Z,98759.50
2023-03-26T19:29:29.816Z,98760.25
2023-03-26T19:32:03.401Z,98760.34
2023-03-26T19:34:38.421Z,98760.31
2023-03-26T19:37:18.374Z,98758.66
2023-03-26T19:39:51.435Z,98760.56
2023-03-26T19:42:44.138Z,98765.00
2023-03-26T19:45:17.746Z,98760.50
2023-03-26T19:47:48.637Z,98760.66
2023-03-26T19:50:29.376Z,98757.22
2023-03-26T19:53:18.807Z,98765.00
2023-03-26T19:55:55.600Z,98761.56
2023-03-26T19:58:22.192Z,98760.75
2023-03-26T20:00:48.510Z,98766.00
2023-03-26T20:03:16.711Z,98772.19
2023-03-26T20:05:43.527Z,98767.84
2023-03-26T20:08:14.585Z,98772.13
2023-03-26T20:10:42.447Z,98769.53
2023-03-26T20:13:16.659Z,98770.72
2023-03-26T20:15:47.090Z,98767.50
2023-03-26T20:18:13.534Z,98780.44
2023-03-26T20:20:41.287Z,98769.28
2023-03-26T20:23:14.269Z,98774.69
2023-03-26T20:25:49.556Z,98784.19
2023-03-26T20:28:19.001Z,98786.09
2023-03-26T20:30:47.157Z,98787.22
2023-03-26T20:33:17.983Z,98789.94
2023-03-26T20:35:45.037Z,98795.31
2023-03-26T20:38:11.683Z,98785.75
2023-03-26T20:40:38.345Z,98804.94
2023-03-26T20:43:06.481Z,98803.94
2023-03-26T20:45:32.895Z,98803.09
2023-03-26T20:47:59.385Z,98803.53
2023-03-26T20:50:26.590Z,98813.91
2023-03-26T20:52:53.305Z,98817.38
2023-03-26T20:55:23.450Z,98820.94
2023-03-26T20:57:50.885Z,98822.97
2023-03-26T21:00:19.984Z,98826.53
2023-03-26T21:02:47.228Z,98812.72
2023-03-26T21:05:18.948Z,98839.00
2023-03-26T21:07:45.614Z,98839.47
2023-03-26T21:10:13.835Z,98843.47
2023-03-26T21:13:10.725Z,98848.84
2023-03-26T21:15:37.393Z,98854.13
2023-03-26T21:18:04.266Z,98861.38
2023-03-26T21:20:32.666Z,98859.75
2023-03-26T21:23:30.209Z,98875.66
2023-03-26T21:26:06.264Z,98879.16
2023-03-26T21:28:41.942Z,98885.38
2023-03-26T21:31:21.074Z,98886.25
2023-03-26T21:33:49.238Z,98887.16
2023-03-26T21:36:17.179Z,98891.63
2023-03-26T21:38:44.542Z,98904.59
2023-03-26T21:41:35.814Z,98908.31
2023-03-26T21:44:03.601Z,98905.13
2023-03-26T21:46:31.789Z,98917.38
2023-03-26T21:48:58.538Z,98916.56
2023-03-26T21:51:25.239Z,98927.22
2023-03-26T21:53:51.816Z,98930.72
2023-03-26T21:56:34.599Z,98943.22
2023-03-26T21:59:45.413Z,98953.06
2023-03-26T22:02:30.944Z,98962.09
2023-03-26T22:05:03.965Z,98969.34
2023-03-26T22:07:59.390Z,98966.91
2023-03-26T22:10:25.812Z,98963.41
2023-03-26T22:12:52.185Z,98977.41
2023-03-26T22:15:18.918Z,98980.16
2023-03-26T22:17:53.651Z,98989.91
2023-03-26T22:20:25.435Z,98979.03
2023-03-26T22:22:53.160Z,99000.97
2023-03-26T22:25:20.735Z,99008.06
2023-03-26T22:27:48.532Z,99012.44
2023-03-26T22:30:15.557Z,99022.06
2023-03-26T22:32:42.504Z,99023.88
2023-03-26T22:35:09.156Z,99031.03
2023-03-26T22:37:37.072Z,99046.84
2023-03-26T22:40:13.530Z,99051.31
2023-03-26T22:42:40.891Z,99061.94
2023-03-26T22:45:09.204Z,99064.59
2023-03-26T22:47:35.686Z,99061.94
2023-03-26T22:50:03.187Z,99072.41
2023-03-26T22:52:30.571Z,99080.31
2023-03-26T22:54:57.199Z,99082.25
2023-03-26T22:57:24.221Z,99099.78
2023-03-26T22:59:50.695Z,99106.13
2023-03-26T23:02:17.364Z,99120.31
2023-03-26T23:04:44.315Z,99117.06
2023-03-26T23:07:10.714Z,99124.25
2023-03-26T23:09:37.021Z,99137.66
2023-03-26T23:12:04.377Z,99152.78
2023-03-26T23:14:32.274Z,99155.47
2023-03-26T23:16:59.232Z,99154.72
2023-03-26T23:19:25.745Z,99166.13
2023-03-26T23:21:52.357Z,99155.91
2023-03-26T23:24:18.681Z,99178.72
2023-03-26T23:26:50.513Z,99179.78
2023-03-26T23:29:17.521Z,99185.88
2023-03-26T23:31:44.062Z,99196.50
2023-03-26T23:34:10.910Z,99210.56
2023-03-26T23:36:37.267Z,99209.72
2023-03-26T23:39:04.648Z,99223.72
2023-03-26T23:41:31.048Z,99201.22
2023-03-26T23:43:57.330Z,99229.81
2023-03-26T23:46:29.960Z,99229.00
2023-03-26T23:48:59.549Z,99236.03
2023-03-26T23:51:25.863Z,99237.69
2023-03-26T23:53:52.673Z,99236.06
2023-03-26T23:56:19.015Z,99248.34
2023-03-26T23:58:45.394Z,99248.34
